Cone, Texas
Current Conditions -  °F | °C
As of 2:53 AM on Saturday 22 Nov 2014 (Local Time) from KLBB Reporting Station
Overcast Overcast  
Wind Chill: 46°   Ceiling: 21000
Heat Index: 46°   Visibility: 9mi
Dew Point: 43°   Wind: 3mph
Humidity: 89%   Direction: 110°ESE
Pressure: 30"   Gusts: NA
Location:  33.5997°N, 101.355°W
Report Text: KLBB 220853Z 11003KT 9SM OVC210 08/06 A3000 RMK AO2 SLP133 BR ALQDS BINOVC T00780061 56008
Loading
Personal Weather Stations






























Interactive Weather Map New forecast layout! Learn more

10-Day Weather Forecast

Advertisements
Track Severe Weather on mobile